sensor_id;sensor_type;location;lat;lon;timestamp;temperature;humidity
20288;DHT22;10303;51.960;8.372;2024-03-23T00:55:17;11.80;99.90
20288;DHT22;10303;51.960;8.372;2024-03-23T00:57:43;11.70;99.90
20288;DHT22;10303;51.960;8.372;2024-03-23T01:00:09;11.70;99.90
20288;DHT22;10303;51.960;8.372;2024-03-23T01:02:36;11.60;99.90
20288;DHT22;10303;51.960;8.372;2024-03-23T01:05:02;11.50;99.90
20288;DHT22;10303;51.960;8.372;2024-03-23T01:07:28;11.20;99.90
20288;DHT22;10303;51.960;8.372;2024-03-23T01:09:54;10.90;99.90
20288;DHT22;10303;51.960;8.372;2024-03-23T01:12:20;10.70;99.90
20288;DHT22;10303;51.960;8.372;2024-03-23T01:14:46;10.60;99.90
20288;DHT22;10303;51.960;8.372;2024-03-23T01:17:12;10.50;99.90
20288;DHT22;10303;51.960;8.372;2024-03-23T01:19:37;10.30;99.90
20288;DHT22;10303;51.960;8.372;2024-03-23T01:22:05;10.30;99.90
20288;DHT22;10303;51.960;8.372;2024-03-23T01:24:31;10.10;99.90
20288;DHT22;10303;51.960;8.372;2024-03-23T01:26:56;9.90;99.90
20288;DHT22;10303;51.960;8.372;2024-03-23T01:29:23;9.90;99.90
20288;DHT22;10303;51.960;8.372;2024-03-23T01:31:49;9.90;99.90
20288;DHT22;10303;51.960;8.372;2024-03-23T01:34:15;9.90;99.90
20288;DHT22;10303;51.960;8.372;2024-03-23T01:36:40;10.10;99.90
20288;DHT22;10303;51.960;8.372;2024-03-23T01:39:06;10.20;99.90
20288;DHT22;10303;51.960;8.372;2024-03-23T01:41:35;10.40;99.90
20288;DHT22;10303;51.960;8.372;2024-03-23T01:44:05;10.50;99.90
20288;DHT22;10303;51.960;8.372;2024-03-23T01:46:33;10.60;99.90
20288;DHT22;10303;51.960;8.372;2024-03-23T01:48:59;10.70;99.90
20288;DHT22;10303;51.960;8.372;2024-03-23T01:51:27;10.60;99.90
20288;DHT22;10303;51.960;8.372;2024-03-23T01:53:54;10.70;99.90
20288;DHT22;10303;51.960;8.372;2024-03-23T01:56:22;10.60;99.90
20288;DHT22;10303;51.960;8.372;2024-03-23T01:58:48;10.70;99.90
20288;DHT22;10303;51.960;8.372;2024-03-23T02:01:14;10.50;99.90
20288;DHT22;10303;51.960;8.372;2024-03-23T02:03:40;10.40;99.90
20288;DHT22;10303;51.960;8.372;2024-03-23T02:06:06;10.40;99.90
20288;DHT22;10303;51.960;8.372;2024-03-23T02:08:34;10.40;99.90
20288;DHT22;10303;51.960;8.372;2024-03-23T02:11:00;10.20;99.90
20288;DHT22;10303;51.960;8.372;2024-03-23T02:13:26;10.20;99.90
20288;DHT22;10303;51.960;8.372;2024-03-23T02:15:52;10.10;99.90
20288;DHT22;10303;51.960;8.372;2024-03-23T02:18:18;10.20;99.90
20288;DHT22;10303;51.960;8.372;2024-03-23T02:20:44;10.20;99.90
20288;DHT22;10303;51.960;8.372;2024-03-23T02:23:17;10.30;99.90
20288;DHT22;10303;51.960;8.372;2024-03-23T02:25:46;10.40;99.90
20288;DHT22;10303;51.960;8.372;2024-03-23T02:28:11;10.30;99.90
20288;DHT22;10303;51.960;8.372;2024-03-23T02:30:38;10.40;99.90
20288;DHT22;10303;51.960;8.372;2024-03-23T02:33:04;10.50;99.90
20288;DHT22;10303;51.960;8.372;2024-03-23T02:35:30;10.60;99.90
20288;DHT22;10303;51.960;8.372;2024-03-23T02:37:56;10.60;99.90
20288;DHT22;10303;51.960;8.372;2024-03-23T02:40:26;10.70;99.90
20288;DHT22;10303;51.960;8.372;2024-03-23T02:42:53;10.70;99.90
20288;DHT22;10303;51.960;8.372;2024-03-23T02:45:19;10.70;99.90
20288;DHT22;10303;51.960;8.372;2024-03-23T02:47:45;10.80;99.90
20288;DHT22;10303;51.960;8.372;2024-03-23T02:50:11;10.80;99.90
20288;DHT22;10303;51.960;8.372;2024-03-23T02:52:37;10.80;99.90
20288;DHT22;10303;51.960;8.372;2024-03-23T02:55:03;10.80;99.90
20288;DHT22;10303;51.960;8.372;2024-03-23T02:57:30;10.80;99.90
20288;DHT22;10303;51.960;8.372;2024-03-23T02:59:56;10.80;99.90
20288;DHT22;10303;51.960;8.372;2024-03-23T03:02:22;10.80;99.90
20288;DHT22;10303;51.960;8.372;2024-03-23T03:04:48;10.80;99.90
20288;DHT22;10303;51.960;8.372;2024-03-23T03:07:14;10.70;99.90
20288;DHT22;10303;51.960;8.372;2024-03-23T03:09:40;10.70;99.90
20288;DHT22;10303;51.960;8.372;2024-03-23T03:12:06;10.80;99.90
20288;DHT22;10303;51.960;8.372;2024-03-23T03:14:36;10.70;99.90
20288;DHT22;10303;51.960;8.372;2024-03-23T03:17:02;10.80;99.90
20288;DHT22;10303;51.960;8.372;2024-03-23T03:19:28;10.80;99.90
20288;DHT22;10303;51.960;8.372;2024-03-23T03:21:53;10.70;99.90
20288;DHT22;10303;51.960;8.372;2024-03-23T03:24:19;10.80;99.90
20288;DHT22;10303;51.960;8.372;2024-03-23T03:26:45;10.60;99.90
20288;DHT22;10303;51.960;8.372;2024-03-23T03:29:11;10.70;99.90
20288;DHT22;10303;51.960;8.372;2024-03-23T03:31:38;10.70;99.90
20288;DHT22;10303;51.960;8.372;2024-03-23T03:34:04;10.70;99.90
20288;DHT22;10303;51.960;8.372;2024-03-23T03:36:30;10.60;99.90
20288;DHT22;10303;51.960;8.372;2024-03-23T03:38:56;10.60;99.90
20288;DHT22;10303;51.960;8.372;2024-03-23T03:41:22;10.50;99.90
20288;DHT22;10303;51.960;8.372;2024-03-23T03:43:48;10.40;99.90
20288;DHT22;10303;51.960;8.372;2024-03-23T03:46:14;10.40;99.90
20288;DHT22;10303;51.960;8.372;2024-03-23T03:48:40;10.40;99.90
20288;DHT22;10303;51.960;8.372;2024-03-23T03:51:06;10.50;99.90
20288;DHT22;10303;51.960;8.372;2024-03-23T03:53:31;10.50;99.90
20288;DHT22;10303;51.960;8.372;2024-03-23T03:56:01;10.50;99.90
20288;DHT22;10303;51.960;8.372;2024-03-23T03:58:27;10.50;99.90
20288;DHT22;10303;51.960;8.372;2024-03-23T04:00:54;10.50;99.90
20288;DHT22;10303;51.960;8.372;2024-03-23T04:03:20;10.50;99.90
20288;DHT22;10303;51.960;8.372;2024-03-23T04:05:53;10.40;99.90
20288;DHT22;10303;51.960;8.372;2024-03-23T04:08:20;10.40;99.90
20288;DHT22;10303;51.960;8.372;2024-03-23T04:10:47;10.40;99.90
20288;DHT22;10303;51.960;8.372;2024-03-23T04:13:13;10.40;99.90
20288;DHT22;10303;51.960;8.372;2024-03-23T04:15:40;10.40;99.90
20288;DHT22;10303;51.960;8.372;2024-03-23T04:18:06;10.30;99.90
20288;DHT22;10303;51.960;8.372;2024-03-23T04:20:32;10.30;99.90
20288;DHT22;10303;51.960;8.372;2024-03-23T04:23:01;10.30;99.90
20288;DHT22;10303;51.960;8.372;2024-03-23T04:25:27;10.30;99.90
20288;DHT22;10303;51.960;8.372;2024-03-23T04:27:53;10.20;99.90
20288;DHT22;10303;51.960;8.372;2024-03-23T04:30:19;10.20;99.90
20288;DHT22;10303;51.960;8.372;2024-03-23T04:32:46;10.20;99.90
20288;DHT22;10303;51.960;8.372;2024-03-23T04:35:13;10.20;99.90
20288;DHT22;10303;51.960;8.372;2024-03-23T04:37:39;10.20;99.90
20288;DHT22;10303;51.960;8.372;2024-03-23T04:40:07;10.10;99.90
20288;DHT22;10303;51.960;8.372;2024-03-23T04:42:34;9.70;99.90
20288;DHT22;10303;51.960;8.372;2024-03-23T04:45:00;9.80;99.90
20288;DHT22;10303;51.960;8.372;2024-03-23T04:47:26;9.80;99.90
20288;DHT22;10303;51.960;8.372;2024-03-23T04:49:52;9.90;99.90
20288;DHT22;10303;51.960;8.372;2024-03-23T04:52:18;9.90;99.90
20288;DHT22;10303;51.960;8.372;2024-03-23T04:54:45;10.00;99.90
20288;DHT22;10303;51.960;8.372;2024-03-23T04:57:11;10.00;99.90
20288;DHT22;10303;51.960;8.372;2024-03-23T04:59:37;10.00;99.90
20288;DHT22;10303;51.960;8.372;2024-03-23T05:02:03;10.10;99.90
20288;DHT22;10303;51.960;8.372;2024-03-23T05:04:29;10.10;99.90
20288;DHT22;10303;51.960;8.372;2024-03-23T05:06:55;10.10;99.90
20288;DHT22;10303;51.960;8.372;2024-03-23T05:09:22;10.10;99.90
20288;DHT22;10303;51.960;8.372;2024-03-23T05:11:48;10.10;99.90
20288;DHT22;10303;51.960;8.372;2024-03-23T05:14:14;10.20;99.90
20288;DHT22;10303;51.960;8.372;2024-03-23T05:16:40;10.20;99.90
20288;DHT22;10303;51.960;8.372;2024-03-23T05:19:06;9.80;99.90
20288;DHT22;10303;51.960;8.372;2024-03-23T05:21:32;9.60;99.90
20288;DHT22;10303;51.960;8.372;2024-03-23T05:23:58;9.80;99.90
20288;DHT22;10303;51.960;8.372;2024-03-23T05:26:24;9.80;99.90
20288;DHT22;10303;51.960;8.372;2024-03-23T05:28:50;9.90;99.90
20288;DHT22;10303;51.960;8.372;2024-03-23T05:31:27;10.00;99.90
20288;DHT22;10303;51.960;8.372;2024-03-23T05:33:53;10.00;99.90
20288;DHT22;10303;51.960;8.372;2024-03-23T05:36:20;10.00;99.90
20288;DHT22;10303;51.960;8.372;2024-03-23T05:38:46;10.10;99.90
20288;DHT22;10303;51.960;8.372;2024-03-23T05:41:12;10.10;99.90
20288;DHT22;10303;51.960;8.372;2024-03-23T05:43:38;10.00;99.90
20288;DHT22;10303;51.960;8.372;2024-03-23T05:46:04;10.00;99.90
20288;DHT22;10303;51.960;8.372;2024-03-23T05:48:31;9.90;99.90
20288;DHT22;10303;51.960;8.372;2024-03-23T05:50:57;10.00;99.90
20288;DHT22;10303;51.960;8.372;2024-03-23T05:53:24;10.00;99.90
20288;DHT22;10303;51.960;8.372;2024-03-23T05:55:51;10.00;99.90
20288;DHT22;10303;51.960;8.372;2024-03-23T05:58:19;10.00;99.90
20288;DHT22;10303;51.960;8.372;2024-03-23T06:00:46;10.10;99.90
20288;DHT22;10303;51.960;8.372;2024-03-23T06:03:12;10.10;99.90
20288;DHT22;10303;51.960;8.372;2024-03-23T06:05:38;10.10;99.90
20288;DHT22;10303;51.960;8.372;2024-03-23T06:08:04;10.10;99.90
20288;DHT22;10303;51.960;8.372;2024-03-23T06:10:31;10.00;99.90
20288;DHT22;10303;51.960;8.372;2024-03-23T06:13:00;10.00;99.90
20288;DHT22;10303;51.960;8.372;2024-03-23T06:15:26;10.00;99.90
20288;DHT22;10303;51.960;8.372;2024-03-23T06:17:52;10.10;99.90
20288;DHT22;10303;51.960;8.372;2024-03-23T06:20:18;10.10;99.90
20288;DHT22;10303;51.960;8.372;2024-03-23T06:22:44;10.10;99.90
20288;DHT22;10303;51.960;8.372;2024-03-23T06:25:10;10.10;99.90
20288;DHT22;10303;51.960;8.372;2024-03-23T06:27:38;10.10;99.90
20288;DHT22;10303;51.960;8.372;2024-03-23T06:30:05;10.10;99.90
20288;DHT22;10303;51.960;8.372;2024-03-23T06:32:32;9.90;99.90
20288;DHT22;10303;51.960;8.372;2024-03-23T06:34:58;10.00;99.90
20288;DHT22;10303;51.960;8.372;2024-03-23T06:37:24;10.00;99.90
20288;DHT22;10303;51.960;8.372;2024-03-23T06:39:51;10.00;99.90
20288;DHT22;10303;51.960;8.372;2024-03-23T06:42:17;9.60;99.90
20288;DHT22;10303;51.960;8.372;2024-03-23T06:44:43;9.40;99.90
20288;DHT22;10303;51.960;8.372;2024-03-23T06:47:09;8.90;99.90
20288;DHT22;10303;51.960;8.372;2024-03-23T06:49:35;8.80;99.90
20288;DHT22;10303;51.960;8.372;2024-03-23T06:52:01;8.70;99.90
20288;DHT22;10303;51.960;8.372;2024-03-23T06:54:28;8.50;99.90
20288;DHT22;10303;51.960;8.372;2024-03-23T06:56:54;8.60;99.90
20288;DHT22;10303;51.960;8.372;2024-03-23T06:59:20;8.40;99.90
20288;DHT22;10303;51.960;8.372;2024-03-23T07:01:46;8.20;99.90
20288;DHT22;10303;51.960;8.372;2024-03-23T07:04:12;8.00;99.90
20288;DHT22;10303;51.960;8.372;2024-03-23T07:06:44;8.00;99.90
20288;DHT22;10303;51.960;8.372;2024-03-23T07:09:11;7.90;99.90
20288;DHT22;10303;51.960;8.372;2024-03-23T07:11:37;8.00;99.90
20288;DHT22;10303;51.960;8.372;2024-03-23T07:14:03;7.80;99.90
20288;DHT22;10303;51.960;8.372;2024-03-23T07:16:30;7.90;99.90
20288;DHT22;10303;51.960;8.372;2024-03-23T07:18:57;7.90;99.90
20288;DHT22;10303;51.960;8.372;2024-03-23T07:21:23;8.00;99.90
20288;DHT22;10303;51.960;8.372;2024-03-23T07:23:49;8.10;99.90
20288;DHT22;10303;51.960;8.372;2024-03-23T07:26:14;8.10;99.90
20288;DHT22;10303;51.960;8.372;2024-03-23T07:28:40;7.90;99.90
20288;DHT22;10303;51.960;8.372;2024-03-23T07:31:11;7.70;99.90
20288;DHT22;10303;51.960;8.372;2024-03-23T07:33:47;7.90;99.90
20288;DHT22;10303;51.960;8.372;2024-03-23T07:36:14;8.10;99.90
20288;DHT22;10303;51.960;8.372;2024-03-23T07:38:42;8.40;99.90
20288;DHT22;10303;51.960;8.372;2024-03-23T07:41:15;8.20;99.90
20288;DHT22;10303;51.960;8.372;2024-03-23T07:43:46;8.10;99.90
20288;DHT22;10303;51.960;8.372;2024-03-23T07:46:15;8.10;99.90
20288;DHT22;10303;51.960;8.372;2024-03-23T07:48:42;8.00;99.90
20288;DHT22;10303;51.960;8.372;2024-03-23T07:51:17;8.00;99.90
20288;DHT22;10303;51.960;8.372;2024-03-23T07:53:45;7.80;99.90
20288;DHT22;10303;51.960;8.372;2024-03-23T07:56:11;7.80;99.90
20288;DHT22;10303;51.960;8.372;2024-03-23T07:58:38;8.00;99.90
20288;DHT22;10303;51.960;8.372;2024-03-23T08:01:14;8.00;99.90
20288;DHT22;10303;51.960;8.372;2024-03-23T08:03:42;7.80;99.90
20288;DHT22;10303;51.960;8.372;2024-03-23T08:08:40;7.90;99.90
20288;DHT22;10303;51.960;8.372;2024-03-23T08:11:06;8.00;99.90
20288;DHT22;10303;51.960;8.372;2024-03-23T08:13:34;8.20;99.90
20288;DHT22;10303;51.960;8.372;2024-03-23T08:16:02;8.40;99.90
20288;DHT22;10303;51.960;8.372;2024-03-23T08:18:29;8.70;99.90
20288;DHT22;10303;51.960;8.372;2024-03-23T08:21:04;8.90;99.90
20288;DHT22;10303;51.960;8.372;2024-03-23T08:23:32;8.40;99.90
20288;DHT22;10303;51.960;8.372;2024-03-23T08:26:02;8.40;99.90
20288;DHT22;10303;51.960;8.372;2024-03-23T08:28:29;8.50;99.90
20288;DHT22;10303;51.960;8.372;2024-03-23T08:30:56;8.60;99.90
20288;DHT22;10303;51.960;8.372;2024-03-23T08:33:23;8.90;99.90
20288;DHT22;10303;51.960;8.372;2024-03-23T08:35:58;9.00;99.90
20288;DHT22;10303;51.960;8.372;2024-03-23T08:38:25;8.80;99.90
20288;DHT22;10303;51.960;8.372;2024-03-23T08:41:05;8.60;99.90
20288;DHT22;10303;51.960;8.372;2024-03-23T08:43:35;8.70;99.90
20288;DHT22;10303;51.960;8.372;2024-03-23T08:46:10;8.90;99.90
20288;DHT22;10303;51.960;8.372;2024-03-23T08:48:39;9.00;99.90
20288;DHT22;10303;51.960;8.372;2024-03-23T08:51:10;9.20;99.90
20288;DHT22;10303;51.960;8.372;2024-03-23T08:53:38;9.30;99.90
20288;DHT22;10303;51.960;8.372;2024-03-23T08:56:05;9.50;99.90
20288;DHT22;10303;51.960;8.372;2024-03-23T08:58:32;9.30;99.90
20288;DHT22;10303;51.960;8.372;2024-03-23T09:01:07;9.20;99.90
20288;DHT22;10303;51.960;8.372;2024-03-23T09:03:34;9.20;99.90
20288;DHT22;10303;51.960;8.372;2024-03-23T09:06:01;9.30;99.90
20288;DHT22;10303;51.960;8.372;2024-03-23T09:08:31;9.20;99.90
20288;DHT22;10303;51.960;8.372;2024-03-23T09:10:58;9.20;99.90
20288;DHT22;10303;51.960;8.372;2024-03-23T09:13:32;9.40;99.90
20288;DHT22;10303;51.960;8.372;2024-03-23T09:16:02;9.80;99.90
20288;DHT22;10303;51.960;8.372;2024-03-23T09:18:34;9.60;99.90
20288;DHT22;10303;51.960;8.372;2024-03-23T09:21:02;9.70;99.90
20288;DHT22;10303;51.960;8.372;2024-03-23T09:23:29;9.20;99.90
20288;DHT22;10303;51.960;8.372;2024-03-23T09:25:55;9.10;99.90
20288;DHT22;10303;51.960;8.372;2024-03-23T09:28:22;9.00;99.90
20288;DHT22;10303;51.960;8.372;2024-03-23T09:30:48;9.00;99.90
20288;DHT22;10303;51.960;8.372;2024-03-23T09:33:14;8.80;99.90
20288;DHT22;10303;51.960;8.372;2024-03-23T09:35:42;8.80;99.90
20288;DHT22;10303;51.960;8.372;2024-03-23T09:38:10;8.70;99.90
20288;DHT22;10303;51.960;8.372;2024-03-23T09:40:42;8.80;99.90
20288;DHT22;10303;51.960;8.372;2024-03-23T09:43:09;9.20;99.90
20288;DHT22;10303;51.960;8.372;2024-03-23T09:45:39;9.20;99.90
20288;DHT22;10303;51.960;8.372;2024-03-23T09:48:09;9.10;99.90
20288;DHT22;10303;51.960;8.372;2024-03-23T09:50:40;9.20;99.90
20288;DHT22;10303;51.960;8.372;2024-03-23T09:53:07;9.00;99.90
20288;DHT22;10303;51.960;8.372;2024-03-23T09:55:34;9.20;99.90
20288;DHT22;10303;51.960;8.372;2024-03-23T09:58:02;9.30;99.90
20288;DHT22;10303;51.960;8.372;2024-03-23T10:00:28;9.70;99.90
20288;DHT22;10303;51.960;8.372;2024-03-23T10:02:58;9.70;99.90
20288;DHT22;10303;51.960;8.372;2024-03-23T10:05:30;9.70;99.90
20288;DHT22;10303;51.960;8.372;2024-03-23T10:10:43;9.90;99.90
20288;DHT22;10303;51.960;8.372;2024-03-23T10:13:11;10.20;99.90
20288;DHT22;10303;51.960;8.372;2024-03-23T10:15:55;10.00;99.90
20288;DHT22;10303;51.960;8.372;2024-03-23T10:18:22;10.10;99.90
20288;DHT22;10303;51.960;8.372;2024-03-23T10:23:31;9.20;99.90
20288;DHT22;10303;51.960;8.372;2024-03-23T10:26:19;9.30;99.90
20288;DHT22;10303;51.960;8.372;2024-03-23T10:29:01;9.40;99.90
20288;DHT22;10303;51.960;8.372;2024-03-23T10:31:30;9.70;99.90
20288;DHT22;10303;51.960;8.372;2024-03-23T10:33:56;9.70;99.90
20288;DHT22;10303;51.960;8.372;2024-03-23T10:36:24;9.40;99.90
20288;DHT22;10303;51.960;8.372;2024-03-23T10:38:51;9.50;99.90
20288;DHT22;10303;51.960;8.372;2024-03-23T10:41:18;9.70;99.90
20288;DHT22;10303;51.960;8.372;2024-03-23T10:43:49;9.90;99.90
20288;DHT22;10303;51.960;8.372;2024-03-23T10:46:15;9.80;99.90
20288;DHT22;10303;51.960;8.372;2024-03-23T10:48:41;10.10;99.90
20288;DHT22;10303;51.960;8.372;2024-03-23T10:51:10;9.90;99.90
20288;DHT22;10303;51.960;8.372;2024-03-23T10:53:36;10.10;99.90
20288;DHT22;10303;51.960;8.372;2024-03-23T10:56:03;10.40;99.90
20288;DHT22;10303;51.960;8.372;2024-03-23T11:00:57;10.40;99.90
20288;DHT22;10303;51.960;8.372;2024-03-23T11:03:31;10.50;99.90
20288;DHT22;10303;51.960;8.372;2024-03-23T11:05:58;10.20;99.90
20288;DHT22;10303;51.960;8.372;2024-03-23T11:08:51;10.40;99.90
20288;DHT22;10303;51.960;8.372;2024-03-23T11:11:17;10.70;99.90
20288;DHT22;10303;51.960;8.372;2024-03-23T11:13:51;10.30;99.90
20288;DHT22;10303;51.960;8.372;2024-03-23T11:16:36;9.90;99.90
20288;DHT22;10303;51.960;8.372;2024-03-23T11:19:33;10.30;99.90
20288;DHT22;10303;51.960;8.372;2024-03-23T11:22:04;10.40;99.90
20288;DHT22;10303;51.960;8.372;2024-03-23T11:24:33;10.70;99.90
20288;DHT22;10303;51.960;8.372;2024-03-23T11:27:15;10.90;99.90
20288;DHT22;10303;51.960;8.372;2024-03-23T11:29:42;10.60;99.90
20288;DHT22;10303;51.960;8.372;2024-03-23T11:32:09;10.60;99.90
20288;DHT22;10303;51.960;8.372;2024-03-23T11:34:36;10.90;99.90
20288;DHT22;10303;51.960;8.372;2024-03-23T11:37:05;11.10;99.90
20288;DHT22;10303;51.960;8.372;2024-03-23T11:39:32;11.10;99.90
20288;DHT22;10303;51.960;8.372;2024-03-23T11:41:58;10.90;99.90
20288;DHT22;10303;51.960;8.372;2024-03-23T11:44:27;10.80;99.90
20288;DHT22;10303;51.960;8.372;2024-03-23T11:46:53;11.00;99.90
20288;DHT22;10303;51.960;8.372;2024-03-23T11:49:29;11.20;99.90
20288;DHT22;10303;51.960;8.372;2024-03-23T11:51:56;11.30;99.90
20288;DHT22;10303;51.960;8.372;2024-03-23T11:54:23;11.40;99.90
20288;DHT22;10303;51.960;8.372;2024-03-23T11:57:00;11.10;99.90
20288;DHT22;10303;51.960;8.372;2024-03-23T11:59:40;11.40;99.90
20288;DHT22;10303;51.960;8.372;2024-03-23T12:02:08;11.70;99.90
20288;DHT22;10303;51.960;8.372;2024-03-23T12:04:39;11.70;99.90
20288;DHT22;10303;51.960;8.372;2024-03-23T12:07:19;11.40;99.90
20288;DHT22;10303;51.960;8.372;2024-03-23T12:10:05;11.30;99.90
20288;DHT22;10303;51.960;8.372;2024-03-23T12:12:32;11.30;99.90
20288;DHT22;10303;51.960;8.372;2024-03-23T12:15:06;10.90;99.90
20288;DHT22;10303;51.960;8.372;2024-03-23T12:17:34;10.50;99.90
20288;DHT22;10303;51.960;8.372;2024-03-23T12:20:01;10.40;99.90
20288;DHT22;10303;51.960;8.372;2024-03-23T12:22:28;10.30;99.90
20288;DHT22;10303;51.960;8.372;2024-03-23T12:24:55;10.40;99.90
20288;DHT22;10303;51.960;8.372;2024-03-23T12:27:21;10.00;99.90
20288;DHT22;10303;51.960;8.372;2024-03-23T12:29:47;9.60;99.90
20288;DHT22;10303;51.960;8.372;2024-03-23T12:32:14;9.90;99.90
20288;DHT22;10303;51.960;8.372;2024-03-23T12:34:40;10.20;99.90
20288;DHT22;10303;51.960;8.372;2024-03-23T12:37:09;10.40;99.90
20288;DHT22;10303;51.960;8.372;2024-03-23T12:39:35;10.50;99.90
20288;DHT22;10303;51.960;8.372;2024-03-23T12:42:02;10.40;99.90
20288;DHT22;10303;51.960;8.372;2024-03-23T12:44:28;10.30;99.90
20288;DHT22;10303;51.960;8.372;2024-03-23T12:46:54;10.30;99.90
20288;DHT22;10303;51.960;8.372;2024-03-23T12:49:20;10.20;99.90
20288;DHT22;10303;51.960;8.372;2024-03-23T12:51:54;10.00;99.90
20288;DHT22;10303;51.960;8.372;2024-03-23T12:54:21;10.50;99.90
20288;DHT22;10303;51.960;8.372;2024-03-23T12:56:48;10.80;99.90
20288;DHT22;10303;51.960;8.372;2024-03-23T12:59:15;10.60;99.90
20288;DHT22;10303;51.960;8.372;2024-03-23T13:01:42;11.00;99.90
20288;DHT22;10303;51.960;8.372;2024-03-23T13:04:09;11.30;99.90
20288;DHT22;10303;51.960;8.372;2024-03-23T13:06:35;11.10;99.90
20288;DHT22;10303;51.960;8.372;2024-03-23T13:09:02;11.10;99.90
20288;DHT22;10303;51.960;8.372;2024-03-23T13:11:32;11.00;99.90
20288;DHT22;10303;51.960;8.372;2024-03-23T13:13:58;11.00;99.90
20288;DHT22;10303;51.960;8.372;2024-03-23T13:16:24;11.20;99.90
20288;DHT22;10303;51.960;8.372;2024-03-23T13:18:50;11.20;99.90
20288;DHT22;10303;51.960;8.372;2024-03-23T13:21:16;11.40;99.90
20288;DHT22;10303;51.960;8.372;2024-03-23T13:23:42;11.10;99.90
20288;DHT22;10303;51.960;8.372;2024-03-23T13:26:11;11.20;99.90
20288;DHT22;10303;51.960;8.372;2024-03-23T13:28:37;10.60;99.90
20288;DHT22;10303;51.960;8.372;2024-03-23T13:31:03;9.00;99.90
20288;DHT22;10303;51.960;8.372;2024-03-23T13:33:30;7.90;99.90
20288;DHT22;10303;51.960;8.372;2024-03-23T13:35:57;7.10;99.90
20288;DHT22;10303;51.960;8.372;2024-03-23T13:38:24;7.20;99.90
20288;DHT22;10303;51.960;8.372;2024-03-23T13:40:55;7.60;99.90
20288;DHT22;10303;51.960;8.372;2024-03-23T13:43:25;8.00;99.90
20288;DHT22;10303;51.960;8.372;2024-03-23T13:45:57;8.40;99.90
20288;DHT22;10303;51.960;8.372;2024-03-23T13:48:26;8.70;99.90
20288;DHT22;10303;51.960;8.372;2024-03-23T13:50:59;8.90;99.90
20288;DHT22;10303;51.960;8.372;2024-03-23T13:53:30;9.20;99.90
20288;DHT22;10303;51.960;8.372;2024-03-23T13:55:56;9.30;99.90
20288;DHT22;10303;51.960;8.372;2024-03-23T13:58:22;9.60;99.90
20288;DHT22;10303;51.960;8.372;2024-03-23T14:00:51;9.90;99.90
20288;DHT22;10303;51.960;8.372;2024-03-23T14:03:17;9.90;99.90
20288;DHT22;10303;51.960;8.372;2024-03-23T14:05:46;9.90;99.90
20288;DHT22;10303;51.960;8.372;2024-03-23T14:08:17;10.30;99.90
20288;DHT22;10303;51.960;8.372;2024-03-23T14:10:43;10.50;99.90
20288;DHT22;10303;51.960;8.372;2024-03-23T14:13:09;10.60;99.90
20288;DHT22;10303;51.960;8.372;2024-03-23T14:15:35;10.90;99.90
20288;DHT22;10303;51.960;8.372;2024-03-23T14:18:02;11.00;99.90
20288;DHT22;10303;51.960;8.372;2024-03-23T14:20:29;11.10;99.90
20288;DHT22;10303;51.960;8.372;2024-03-23T14:22:55;10.50;99.90
20288;DHT22;10303;51.960;8.372;2024-03-23T14:25:21;10.00;99.90
20288;DHT22;10303;51.960;8.372;2024-03-23T14:27:49;9.60;99.90
20288;DHT22;10303;51.960;8.372;2024-03-23T14:30:15;10.10;99.90
20288;DHT22;10303;51.960;8.372;2024-03-23T14:32:41;10.10;99.90
20288;DHT22;10303;51.960;8.372;2024-03-23T14:35:07;9.60;99.90
20288;DHT22;10303;51.960;8.372;2024-03-23T14:37:36;9.80;99.90
20288;DHT22;10303;51.960;8.372;2024-03-23T14:40:04;9.90;99.90
20288;DHT22;10303;51.960;8.372;2024-03-23T14:42:30;10.00;99.90
20288;DHT22;10303;51.960;8.372;2024-03-23T14:44:59;9.50;99.90
20288;DHT22;10303;51.960;8.372;2024-03-23T14:47:25;8.90;99.90
20288;DHT22;10303;51.960;8.372;2024-03-23T14:49:51;7.60;99.90
20288;DHT22;10303;51.960;8.372;2024-03-23T14:52:17;7.10;99.90
20288;DHT22;10303;51.960;8.372;2024-03-23T14:54:44;6.80;99.90
20288;DHT22;10303;51.960;8.372;2024-03-23T14:57:10;6.90;99.90
20288;DHT22;10303;51.960;8.372;2024-03-23T14:59:36;7.10;99.90
20288;DHT22;10303;51.960;8.372;2024-03-23T15:02:09;7.30;99.90
20288;DHT22;10303;51.960;8.372;2024-03-23T15:04:35;7.60;99.90
20288;DHT22;10303;51.960;8.372;2024-03-23T15:07:02;7.60;99.90
20288;DHT22;10303;51.960;8.372;2024-03-23T15:09:28;7.70;99.90
20288;DHT22;10303;51.960;8.372;2024-03-23T15:11:54;7.90;99.90
20288;DHT22;10303;51.960;8.372;2024-03-23T15:14:23;8.10;99.90
20288;DHT22;10303;51.960;8.372;2024-03-23T15:16:49;8.40;99.90
20288;DHT22;10303;51.960;8.372;2024-03-23T15:19:16;8.50;99.90
20288;DHT22;10303;51.960;8.372;2024-03-23T15:21:43;8.80;99.90
20288;DHT22;10303;51.960;8.372;2024-03-23T15:24:09;8.80;99.90
20288;DHT22;10303;51.960;8.372;2024-03-23T15:26:37;8.60;99.90
20288;DHT22;10303;51.960;8.372;2024-03-23T15:29:03;8.80;99.90
20288;DHT22;10303;51.960;8.372;2024-03-23T15:31:37;8.90;99.90
20288;DHT22;10303;51.960;8.372;2024-03-23T15:34:03;9.00;99.90
20288;DHT22;10303;51.960;8.372;2024-03-23T15:36:30;9.20;99.90
20288;DHT22;10303;51.960;8.372;2024-03-23T15:38:56;9.20;99.90
20288;DHT22;10303;51.960;8.372;2024-03-23T15:41:23;9.40;99.90
20288;DHT22;10303;51.960;8.372;2024-03-23T15:43:50;9.50;99.90
20288;DHT22;10303;51.960;8.372;2024-03-23T15:46:16;9.70;99.90
20288;DHT22;10303;51.960;8.372;2024-03-23T15:48:44;9.90;99.90
20288;DHT22;10303;51.960;8.372;2024-03-23T15:51:12;10.20;99.90
20288;DHT22;10303;51.960;8.372;2024-03-23T15:53:38;10.20;99.90
20288;DHT22;10303;51.960;8.372;2024-03-23T15:56:04;10.30;99.90
20288;DHT22;10303;51.960;8.372;2024-03-23T15:58:32;10.30;99.90
20288;DHT22;10303;51.960;8.372;2024-03-23T16:00:59;10.50;99.90
20288;DHT22;10303;51.960;8.372;2024-03-23T16:03:30;10.40;99.90
20288;DHT22;10303;51.960;8.372;2024-03-23T16:06:01;10.70;99.90
20288;DHT22;10303;51.960;8.372;2024-03-23T16:08:29;10.70;99.90
20288;DHT22;10303;51.960;8.372;2024-03-23T16:11:00;10.10;99.90
20288;DHT22;10303;51.960;8.372;2024-03-23T16:13:27;9.40;99.90
20288;DHT22;10303;51.960;8.372;2024-03-23T16:16:04;9.90;99.90
20288;DHT22;10303;51.960;8.372;2024-03-23T16:18:34;10.00;99.90
20288;DHT22;10303;51.960;8.372;2024-03-23T16:21:03;10.20;99.90
20288;DHT22;10303;51.960;8.372;2024-03-23T16:23:34;10.40;99.90
20288;DHT22;10303;51.960;8.372;2024-03-23T16:26:04;10.50;99.90
20288;DHT22;10303;51.960;8.372;2024-03-23T16:28:34;10.50;99.90
20288;DHT22;10303;51.960;8.372;2024-03-23T16:31:05;9.90;99.90
20288;DHT22;10303;51.960;8.372;2024-03-23T16:33:33;9.70;99.90
20288;DHT22;10303;51.960;8.372;2024-03-23T16:36:10;9.10;99.90
20288;DHT22;10303;51.960;8.372;2024-03-23T16:38:40;8.90;99.90
20288;DHT22;10303;51.960;8.372;2024-03-23T16:41:08;8.70;99.90
20288;DHT22;10303;51.960;8.372;2024-03-23T16:43:46;8.60;99.90
20288;DHT22;10303;51.960;8.372;2024-03-23T16:46:13;8.50;99.90